createdAt,value
2019-02-06T00:00:38.879Z,4.00
2019-02-06T00:03:08.526Z,4.00
2019-02-06T00:05:37.471Z,4.00
2019-02-06T00:08:06.510Z,3.90
2019-02-06T00:10:35.638Z,4.00
2019-02-06T00:13:04.741Z,3.90
2019-02-06T00:15:33.721Z,3.90
2019-02-06T00:18:02.929Z,3.90
2019-02-06T00:20:31.992Z,3.90
2019-02-06T00:23:00.853Z,3.90
2019-02-06T00:25:30.059Z,3.90
2019-02-06T00:27:58.916Z,3.80
2019-02-06T00:30:27.865Z,3.80
2019-02-06T00:32:56.821Z,3.80
2019-02-06T00:35:26.285Z,3.80
2019-02-06T00:37:55.315Z,3.70
2019-02-06T00:40:24.402Z,3.70
2019-02-06T00:42:53.313Z,3.70
2019-02-06T00:45:24.905Z,3.70
2019-02-06T00:47:53.981Z,3.70
2019-02-06T00:50:24.541Z,3.70
2019-02-06T00:52:53.451Z,3.70
2019-02-06T00:55:22.764Z,3.70
2019-02-06T00:57:51.873Z,3.70
2019-02-06T01:00:22.588Z,3.70
2019-02-06T01:02:52.324Z,3.60
2019-02-06T01:05:21.992Z,3.60
2019-02-06T01:07:51.042Z,3.60
2019-02-06T01:10:20.632Z,3.60
2019-02-06T01:12:49.538Z,3.60
2019-02-06T01:15:18.712Z,3.60
2019-02-06T01:17:47.869Z,3.60
2019-02-06T01:20:17.240Z,3.60
2019-02-06T01:22:46.206Z,3.60
2019-02-06T01:25:16.227Z,3.60
2019-02-06T01:27:45.307Z,3.70
2019-02-06T01:30:17.590Z,3.70
2019-02-06T01:32:46.508Z,3.70
2019-02-06T01:35:15.754Z,3.80
2019-02-06T01:37:44.832Z,3.80
2019-02-06T01:40:15.436Z,3.80
2019-02-06T01:42:44.408Z,3.80
2019-02-06T01:45:14.587Z,3.80
2019-02-06T01:47:43.509Z,3.80
2019-02-06T01:50:13.775Z,3.80
2019-02-06T01:52:42.874Z,3.80
2019-02-06T01:55:11.828Z,3.90
2019-02-06T01:57:40.900Z,3.80
2019-02-06T02:00:16.128Z,3.80
2019-02-06T02:02:45.070Z,3.80
2019-02-06T02:05:15.772Z,3.80
2019-02-06T02:07:44.873Z,3.80
2019-02-06T02:10:14.883Z,3.80
2019-02-06T02:12:43.808Z,3.80
2019-02-06T02:15:13.997Z,3.80
2019-02-06T02:17:43.128Z,3.80
2019-02-06T02:20:15.554Z,3.80
2019-02-06T02:22:44.572Z,3.80
2019-02-06T02:25:13.529Z,3.80
2019-02-06T02:27:42.668Z,3.90
2019-02-06T02:30:17.156Z,3.90
2019-02-06T02:32:46.181Z,4.00
2019-02-06T02:35:15.222Z,4.00
2019-02-06T02:37:44.264Z,4.00
2019-02-06T02:40:13.697Z,4.00
2019-02-06T02:42:42.509Z,4.00
2019-02-06T02:45:12.996Z,4.00
2019-02-06T02:47:42.269Z,4.00
2019-02-06T02:50:11.757Z,4.10
2019-02-06T02:52:40.840Z,4.10
2019-02-06T02:55:10.129Z,4.10
2019-02-06T02:57:39.163Z,4.10
2019-02-06T03:00:13.263Z,4.10
2019-02-06T03:03:04.466Z,4.20
2019-02-06T03:05:35.344Z,4.10
2019-02-06T03:08:04.438Z,4.10
2019-02-06T03:10:33.301Z,4.10
2019-02-06T03:13:02.768Z,4.10
2019-02-06T03:15:31.605Z,4.10
2019-02-06T03:18:00.661Z,4.00
2019-02-06T03:20:29.642Z,4.10
2019-02-06T03:22:58.577Z,4.10
2019-02-06T03:25:27.436Z,4.10
2019-02-06T03:27:56.415Z,4.10
2019-02-06T03:30:26.529Z,4.10
2019-02-06T03:32:55.423Z,4.10
2019-02-06T03:35:26.588Z,4.10
2019-02-06T03:37:55.419Z,4.00
2019-02-06T03:40:24.365Z,4.00
2019-02-06T03:42:53.526Z,4.00
2019-02-06T03:45:23.450Z,4.00
2019-02-06T03:47:52.406Z,4.10
2019-02-06T03:50:21.660Z,4.00
2019-02-06T03:52:50.507Z,3.90
2019-02-06T03:55:19.455Z,3.90
2019-02-06T03:57:48.522Z,3.90
2019-02-06T04:00:17.871Z,3.90
2019-02-06T04:02:46.716Z,4.00
2019-02-06T04:05:16.110Z,4.00
2019-02-06T04:07:45.040Z,4.00
2019-02-06T04:10:14.541Z,4.00
2019-02-06T04:12:43.474Z,4.00
2019-02-06T04:15:13.047Z,4.00
2019-02-06T04:17:41.910Z,4.00
2019-02-06T04:20:11.379Z,4.00
2019-02-06T04:22:40.523Z,4.00
2019-02-06T04:25:10.201Z,4.10
2019-02-06T04:27:39.212Z,4.10
2019-02-06T04:30:09.728Z,4.10
2019-02-06T04:32:38.560Z,4.10
2019-02-06T04:35:09.169Z,4.10
2019-02-06T04:37:38.558Z,4.10
2019-02-06T04:40:11.620Z,4.10
2019-02-06T04:42:40.625Z,4.10
2019-02-06T04:45:10.275Z,4.10
2019-02-06T04:47:39.284Z,4.10
2019-02-06T04:50:09.196Z,4.10
2019-02-06T04:52:38.124Z,4.10
2019-02-06T04:55:07.710Z,4.10
2019-02-06T04:57:36.825Z,4.10
2019-02-06T05:00:11.370Z,4.10
2019-02-06T05:02:40.380Z,4.20
2019-02-06T05:05:09.321Z,4.30
2019-02-06T05:07:38.244Z,4.30
2019-02-06T05:10:09.164Z,4.30
2019-02-06T05:12:37.946Z,4.30
2019-02-06T05:15:07.422Z,4.30
2019-02-06T05:17:36.496Z,4.20
2019-02-06T05:20:14.968Z,4.30
2019-02-06T05:22:43.870Z,4.30
2019-02-06T05:25:12.950Z,4.30
2019-02-06T05:27:42.213Z,4.30
2019-02-06T05:30:11.274Z,4.40
2019-02-06T05:32:43.005Z,4.40
2019-02-06T05:35:10.862Z,4.30
2019-02-06T05:37:39.902Z,4.40
2019-02-06T05:40:09.270Z,4.30
2019-02-06T05:42:38.165Z,4.40
2019-02-06T05:45:07.826Z,4.40
2019-02-06T05:47:36.721Z,4.40
2019-02-06T05:50:06.266Z,4.40
2019-02-06T05:52:35.428Z,4.40
2019-02-06T05:55:04.962Z,4.40
2019-02-06T05:57:33.937Z,4.40
2019-02-06T06:00:05.246Z,4.40
2019-02-06T06:02:34.054Z,4.40
2019-02-06T06:05:03.033Z,4.40
2019-02-06T06:07:44.167Z,4.40
2019-02-06T06:10:02.772Z,4.40
2019-02-06T06:12:31.579Z,4.40
2019-02-06T06:15:00.752Z,4.40
2019-02-06T06:17:29.742Z,4.40
2019-02-06T06:19:58.537Z,4.40
2019-02-06T06:22:27.539Z,4.40
2019-02-06T06:24:56.628Z,4.40
2019-02-06T06:27:26.022Z,4.40
2019-02-06T06:29:55.206Z,4.40
2019-02-06T06:32:24.520Z,4.40
2019-02-06T06:34:56.760Z,4.40
2019-02-06T06:37:31.031Z,4.40
2019-02-06T06:40:07.873Z,4.40
2019-02-06T06:42:36.910Z,4.50
2019-02-06T06:45:08.028Z,4.50
2019-02-06T06:47:36.984Z,4.50
2019-02-06T06:50:07.689Z,4.50
2019-02-06T06:52:36.580Z,4.50
2019-02-06T06:55:06.127Z,4.50
2019-02-06T06:57:35.201Z,4.50
2019-02-06T07:00:05.260Z,4.50
2019-02-06T07:02:34.130Z,4.60
2019-02-06T07:05:05.594Z,4.60
2019-02-06T07:07:33.748Z,4.50
2019-02-06T07:10:02.696Z,4.60
2019-02-06T07:12:31.828Z,4.50
2019-02-06T07:15:01.251Z,4.50
2019-02-06T07:17:30.057Z,4.60
2019-02-06T07:19:59.049Z,4.60
2019-02-06T07:22:27.916Z,4.50
2019-02-06T07:24:56.775Z,4.50
2019-02-06T07:27:25.914Z,4.50
2019-02-06T07:29:54.969Z,4.50
2019-02-06T07:32:24.090Z,4.50
2019-02-06T07:34:53.084Z,4.50
2019-02-06T07:37:22.033Z,4.50
2019-02-06T07:39:57.009Z,4.50
2019-02-06T07:42:26.109Z,4.50
2019-02-06T07:44:55.367Z,4.50
2019-02-06T07:47:24.659Z,4.50
2019-02-06T07:49:53.506Z,4.50
2019-02-06T07:52:22.340Z,4.50
2019-02-06T07:54:51.191Z,4.50
2019-02-06T07:57:20.684Z,4.50
2019-02-06T07:59:49.893Z,4.50
2019-02-06T08:02:19.072Z,4.50
2019-02-06T08:04:47.999Z,4.50
2019-02-06T08:07:16.901Z,4.50
2019-02-06T08:09:45.972Z,4.50
2019-02-06T08:12:14.777Z,4.50
2019-02-06T08:14:43.681Z,4.50
2019-02-06T08:17:12.845Z,4.50
2019-02-06T08:19:41.620Z,4.50
2019-02-06T08:22:10.430Z,4.50
2019-02-06T08:24:39.336Z,4.50
2019-02-06T08:27:08.283Z,4.50
2019-02-06T08:29:37.244Z,4.50
2019-02-06T08:32:06.739Z,4.50
2019-02-06T08:34:36.021Z,4.50
2019-02-06T08:37:05.009Z,4.60
2019-02-06T08:39:34.032Z,4.50
2019-02-06T08:42:03.003Z,4.60
2019-02-06T08:44:31.807Z,4.60
2019-02-06T08:47:01.221Z,4.60
2019-02-06T08:49:30.127Z,4.60
2019-02-06T08:51:59.315Z,4.70
2019-02-06T08:54:28.302Z,4.70
2019-02-06T08:56:57.172Z,4.70
2019-02-06T08:59:26.043Z,4.70
2019-02-06T09:01:55.184Z,4.70
2019-02-06T09:04:24.110Z,4.70
2019-02-06T09:07:05.734Z,4.80
2019-02-06T09:09:34.629Z,4.80
2019-02-06T09:12:03.776Z,4.80
2019-02-06T09:14:32.605Z,4.80
2019-02-06T09:17:01.751Z,4.80
2019-02-06T09:19:30.783Z,4.90
2019-02-06T09:21:59.546Z,4.90
2019-02-06T09:24:28.475Z,4.90
2019-02-06T09:26:57.447Z,4.90
2019-02-06T09:29:26.265Z,5.00
2019-02-06T09:31:55.513Z,5.00
2019-02-06T09:34:24.772Z,5.00
2019-02-06T09:36:53.598Z,5.00
2019-02-06T09:39:22.743Z,5.10
2019-02-06T09:41:51.802Z,5.10
2019-02-06T09:44:20.588Z,5.10
2019-02-06T09:46:49.430Z,5.10
2019-02-06T09:49:18.564Z,5.10
2019-02-06T09:51:47.358Z,5.20
2019-02-06T09:54:16.153Z,5.20
2019-02-06T09:56:45.732Z,5.20
2019-02-06T09:59:14.497Z,5.30
2019-02-06T10:01:43.356Z,5.30
2019-02-06T10:04:12.713Z,5.30
2019-02-06T10:06:41.697Z,5.30
2019-02-06T10:09:10.515Z,5.40
2019-02-06T10:11:39.713Z,5.40
2019-02-06T10:14:08.576Z,5.40
2019-02-06T10:16:37.432Z,5.50
2019-02-06T10:19:06.558Z,5.50
2019-02-06T10:21:35.425Z,5.50
2019-02-06T10:24:04.473Z,5.50
2019-02-06T10:26:33.777Z,5.50
2019-02-06T10:29:02.856Z,5.60
2019-02-06T10:31:32.895Z,5.60
2019-02-06T10:34:02.738Z,5.60
2019-02-06T10:36:31.580Z,5.70
2019-02-06T10:39:00.465Z,5.70
2019-02-06T10:41:29.565Z,5.70
2019-02-06T10:43:58.576Z,5.70
2019-02-06T10:46:27.578Z,5.80
2019-02-06T10:48:56.677Z,5.80
2019-02-06T10:51:25.853Z,5.80
2019-02-06T10:53:54.645Z,5.80
2019-02-06T10:56:23.921Z,5.90
2019-02-06T10:58:52.828Z,5.90
2019-02-06T11:01:21.924Z,5.90
2019-02-06T11:03:51.040Z,6.00
2019-02-06T11:06:22.389Z,6.00
2019-02-06T11:08:51.254Z,6.00
2019-02-06T11:11:20.272Z,6.00
2019-02-06T11:13:49.800Z,6.00
2019-02-06T11:16:18.836Z,6.00
2019-02-06T11:18:48.029Z,6.00
2019-02-06T11:21:16.951Z,6.10
2019-02-06T11:23:47.389Z,6.10
2019-02-06T11:26:16.348Z,6.10
2019-02-06T11:28:45.308Z,6.10
2019-02-06T11:31:14.741Z,6.20
2019-02-06T11:33:43.829Z,6.20
2019-02-06T11:36:23.610Z,6.20
2019-02-06T11:38:43.483Z,6.30
2019-02-06T11:41:12.453Z,6.30
2019-02-06T11:43:41.430Z,6.30
2019-02-06T11:46:10.297Z,6.30
2019-02-06T11:48:40.133Z,6.30
2019-02-06T11:51:09.185Z,6.30
2019-02-06T11:53:37.987Z,6.40
2019-02-06T11:56:07.396Z,6.40
2019-02-06T11:58:36.322Z,6.40
2019-02-06T12:01:34.237Z,6.40
2019-02-06T12:04:03.268Z,6.40
2019-02-06T12:06:32.223Z,6.40
2019-02-06T12:09:01.779Z,6.40
2019-02-06T12:11:30.553Z,6.50
2019-02-06T12:13:59.542Z,6.50
2019-02-06T12:16:29.342Z,6.50
2019-02-06T12:18:58.141Z,6.50
2019-02-06T12:21:27.087Z,6.50
2019-02-06T12:23:56.112Z,6.60
2019-02-06T12:26:27.579Z,6.50
2019-02-06T12:28:56.470Z,6.60
2019-02-06T12:31:25.750Z,6.50
2019-02-06T12:33:54.852Z,6.60
2019-02-06T12:36:23.951Z,6.60
2019-02-06T12:38:53.971Z,6.60
2019-02-06T12:41:23.166Z,6.60
2019-02-06T12:43:52.029Z,6.70
2019-02-06T12:46:20.944Z,6.70
2019-02-06T12:48:49.975Z,6.70
2019-02-06T12:51:19.325Z,6.70
2019-02-06T12:53:48.125Z,6.70
2019-02-06T12:56:17.157Z,6.70
2019-02-06T12:58:46.217Z,6.70
2019-02-06T13:01:15.095Z,6.70
2019-02-06T13:03:44.111Z,6.80
2019-02-06T13:06:12.983Z,6.80
2019-02-06T13:08:42.037Z,6.80
2019-02-06T13:11:12.001Z,6.80
2019-02-06T13:13:40.985Z,6.80
2019-02-06T13:16:09.919Z,6.80
2019-02-06T13:18:38.948Z,6.80
2019-02-06T13:21:08.155Z,6.80
2019-02-06T13:23:37.537Z,6.80
2019-02-06T13:26:07.877Z,6.80
2019-02-06T13:28:36.773Z,6.90
2019-02-06T13:31:05.905Z,6.90
2019-02-06T13:33:34.859Z,6.90
2019-02-06T13:36:07.116Z,6.90
2019-02-06T13:38:36.341Z,6.90
2019-02-06T13:41:07.084Z,6.90
2019-02-06T13:43:36.053Z,6.90
2019-02-06T13:46:05.697Z,6.90
2019-02-06T13:48:34.864Z,6.90
2019-02-06T13:51:15.633Z,6.90
2019-02-06T13:53:34.962Z,6.90
2019-02-06T13:56:03.954Z,7.00
2019-02-06T13:58:32.852Z,6.90
2019-02-06T14:01:02.063Z,7.00
2019-02-06T14:03:31.246Z,7.00
2019-02-06T14:06:00.225Z,7.00
2019-02-06T14:08:29.682Z,7.00
2019-02-06T14:11:00.888Z,7.00
2019-02-06T14:13:29.225Z,7.00
2019-02-06T14:15:58.393Z,7.10
2019-02-06T14:18:27.233Z,7.10
2019-02-06T14:20:56.096Z,7.10
2019-02-06T14:23:35.764Z,7.10
2019-02-06T14:26:44.373Z,7.10
2019-02-06T14:29:52.383Z,7.10
2019-02-06T14:32:29.895Z,7.10
2019-02-06T14:35:30.073Z,7.10
2019-02-06T14:38:52.136Z,7.20
2019-02-06T14:42:12.936Z,7.20
2019-02-06T14:45:13.229Z,7.10
2019-02-06T14:48:17.944Z,7.20
2019-02-06T14:51:02.492Z,7.20
2019-02-06T14:53:38.521Z,7.20
2019-02-06T14:56:17.878Z,7.20
2019-02-06T14:59:21.241Z,7.20
2019-02-06T15:01:57.438Z,7.20
2019-02-06T15:05:14.767Z,7.20
2019-02-06T15:07:52.856Z,7.20
2019-02-06T15:11:21.742Z,7.20
2019-02-06T15:14:04.267Z,7.30
2019-02-06T15:17:23.304Z,7.20
2019-02-06T15:20:18.641Z,7.30
2019-02-06T15:23:33.022Z,7.30
2019-02-06T15:26:25.400Z,7.30
2019-02-06T15:29:18.636Z,7.30
2019-02-06T15:32:27.243Z,7.30
2019-02-06T15:35:25.647Z,7.30
2019-02-06T15:38:41.177Z,7.20
2019-02-06T15:41:45.022Z,7.30
2019-02-06T15:44:48.406Z,7.30
2019-02-06T15:47:46.357Z,7.30
2019-02-06T15:50:32.136Z,7.30
2019-02-06T15:53:32.090Z,7.30
2019-02-06T15:56:36.803Z,7.30
2019-02-06T15:59:47.267Z,7.30
2019-02-06T16:03:06.437Z,7.40
2019-02-06T16:06:00.469Z,7.40
2019-02-06T16:08:48.494Z,7.40
2019-02-06T16:11:27.354Z,7.30
2019-02-06T16:14:33.058Z,7.30
2019-02-06T16:17:47.774Z,7.30
2019-02-06T16:20:58.617Z,7.30
2019-02-06T16:24:13.816Z,7.30
2019-02-06T16:27:17.688Z,7.30
2019-02-06T16:30:38.794Z,7.30
2019-02-06T16:33:41.524Z,7.30
2019-02-06T16:36:23.057Z,7.30
2019-02-06T16:39:44.952Z,7.30
2019-02-06T16:42:53.660Z,7.30
2019-02-06T16:45:51.953Z,7.30
2019-02-06T16:49:05.765Z,7.30
2019-02-06T16:51:47.523Z,7.40
2019-02-06T16:54:28.722Z,7.40
2019-02-06T16:57:17.156Z,7.30
2019-02-06T17:00:27.454Z,7.40
2019-02-06T17:03:28.377Z,7.40
2019-02-06T17:06:29.216Z,7.40
2019-02-06T17:09:35.694Z,7.40
2019-02-06T17:12:16.313Z,7.40
2019-02-06T17:15:07.192Z,7.40
2019-02-06T17:18:32.346Z,7.40
2019-02-06T17:21:26.785Z,7.50
2019-02-06T17:24:18.641Z,7.50
2019-02-06T17:27:13.881Z,7.50
2019-02-06T17:29:59.413Z,7.50
2019-02-06T17:33:10.577Z,7.50
2019-02-06T17:35:58.974Z,7.50
2019-02-06T17:38:50.676Z,7.50
2019-02-06T17:42:15.778Z,7.50
2019-02-06T17:45:08.240Z,7.60
2019-02-06T17:47:59.179Z,7.60
2019-02-06T17:50:53.732Z,7.60
2019-02-06T17:54:08.816Z,7.50
2019-02-06T17:56:38.043Z,7.60
2019-02-06T17:59:07.281Z,7.60
2019-02-06T18:01:42.944Z,7.60
2019-02-06T18:04:14.293Z,7.60
2019-02-06T18:06:43.257Z,7.60
2019-02-06T18:09:15.620Z,7.60
2019-02-06T18:11:45.853Z,7.60
2019-02-06T18:14:14.902Z,7.60
2019-02-06T18:16:44.198Z,7.60
2019-02-06T18:19:13.127Z,7.60
2019-02-06T18:21:42.010Z,7.60
2019-02-06T18:24:11.628Z,7.60
2019-02-06T18:26:45.781Z,7.60
2019-02-06T18:29:15.072Z,7.60
2019-02-06T18:31:44.191Z,7.60
2019-02-06T18:34:13.137Z,7.70
2019-02-06T18:36:42.321Z,7.60
2019-02-06T18:39:12.795Z,7.60
2019-02-06T18:41:41.845Z,7.70
2019-02-06T18:44:11.021Z,7.60
2019-02-06T18:46:39.991Z,7.70
2019-02-06T18:49:08.988Z,7.70
2019-02-06T18:51:38.228Z,7.70
2019-02-06T18:54:09.369Z,7.70
2019-02-06T18:56:38.399Z,7.70
2019-02-06T18:59:07.805Z,7.70
2019-02-06T19:01:37.080Z,7.70
2019-02-06T19:04:11.177Z,7.70
2019-02-06T19:06:40.762Z,7.70
2019-02-06T19:09:14.449Z,7.70
2019-02-06T19:11:43.804Z,7.70
2019-02-06T19:14:12.848Z,7.80
2019-02-06T19:16:41.875Z,7.80
2019-02-06T19:19:11.053Z,7.80
2019-02-06T19:21:39.940Z,7.80
2019-02-06T19:24:09.233Z,7.70
2019-02-06T19:26:38.621Z,7.80
2019-02-06T19:29:07.512Z,7.80
2019-02-06T19:31:36.429Z,7.80
2019-02-06T19:34:05.979Z,7.80
2019-02-06T19:36:34.835Z,7.80
2019-02-06T19:39:05.308Z,7.80
2019-02-06T19:41:34.380Z,7.80
2019-02-06T19:44:03.645Z,7.80
2019-02-06T19:46:32.682Z,7.80
2019-02-06T19:49:01.818Z,7.80
2019-02-06T19:51:30.969Z,7.80
2019-02-06T19:53:59.824Z,7.80
2019-02-06T19:56:28.845Z,7.80
2019-02-06T19:58:57.785Z,7.80
2019-02-06T20:01:26.695Z,7.80
2019-02-06T20:03:55.792Z,7.80
2019-02-06T20:06:34.057Z,7.80
2019-02-06T20:09:10.630Z,7.80
2019-02-06T20:11:39.487Z,7.90
2019-02-06T20:14:08.481Z,7.80
2019-02-06T20:16:37.600Z,7.90
2019-02-06T20:19:06.691Z,7.80
2019-02-06T20:21:35.676Z,7.90
2019-02-06T20:24:05.968Z,7.90
2019-02-06T20:26:34.978Z,7.90
2019-02-06T20:29:04.343Z,7.90
2019-02-06T20:31:33.536Z,7.90
2019-02-06T20:34:02.434Z,7.90
2019-02-06T20:36:31.349Z,7.90
2019-02-06T20:39:00.548Z,7.90
2019-02-06T20:41:29.553Z,7.90
2019-02-06T20:44:00.932Z,7.90
2019-02-06T20:46:29.713Z,7.90
2019-02-06T20:48:58.592Z,7.90
2019-02-06T20:51:27.534Z,7.90
2019-02-06T20:53:56.468Z,8.00
2019-02-06T20:56:25.529Z,8.00
2019-02-06T20:58:54.578Z,8.00
2019-02-06T21:01:23.624Z,8.00
2019-02-06T21:03:52.489Z,8.00
2019-02-06T21:06:21.469Z,8.00
2019-02-06T21:08:50.406Z,8.00
2019-02-06T21:11:19.316Z,8.00
2019-02-06T21:13:48.785Z,8.00
2019-02-06T21:16:17.724Z,8.00
2019-02-06T21:18:46.749Z,8.00
2019-02-06T21:21:15.848Z,8.00
2019-02-06T21:23:45.028Z,8.00
2019-02-06T21:26:14.063Z,8.00
2019-02-06T21:28:43.284Z,8.10
2019-02-06T21:31:12.172Z,8.10
2019-02-06T21:33:41.144Z,8.10
2019-02-06T21:36:10.202Z,8.00
2019-02-06T21:38:39.080Z,8.10
2019-02-06T21:41:07.892Z,8.10
2019-02-06T21:43:44.219Z,8.10
2019-02-06T21:46:11.979Z,8.10
2019-02-06T21:48:40.864Z,8.00
2019-02-06T21:51:09.874Z,8.10
2019-02-06T21:53:38.730Z,8.10
2019-02-06T21:56:07.600Z,8.10
2019-02-06T21:58:36.497Z,8.10
2019-02-06T22:01:05.476Z,8.10
2019-02-06T22:03:34.340Z,8.10
2019-02-06T22:06:03.648Z,8.10
2019-02-06T22:08:32.459Z,8.10
2019-02-06T22:11:01.452Z,8.10
2019-02-06T22:13:30.342Z,8.10
2019-02-06T22:15:59.218Z,8.10
2019-02-06T22:18:28.056Z,8.10
2019-02-06T22:20:57.295Z,8.10
2019-02-06T22:23:26.261Z,8.10
2019-02-06T22:25:55.124Z,8.10
2019-02-06T22:28:24.262Z,8.10
2019-02-06T22:30:53.179Z,8.10
2019-02-06T22:33:21.991Z,8.10
2019-02-06T22:35:50.917Z,8.10
2019-02-06T22:38:19.870Z,8.10
2019-02-06T22:40:48.857Z,8.10
2019-02-06T22:43:17.873Z,8.00
2019-02-06T22:45:46.935Z,8.00
2019-02-06T22:48:15.817Z,8.00
2019-02-06T22:50:44.745Z,8.00
2019-02-06T22:53:13.733Z,8.00
2019-02-06T22:55:42.609Z,8.00
2019-02-06T22:58:11.724Z,8.00
2019-02-06T23:00:54.602Z,8.00
2019-02-06T23:03:32.918Z,8.00
2019-02-06T23:06:01.868Z,8.00
2019-02-06T23:08:30.873Z,8.00
2019-02-06T23:11:00.367Z,8.00
2019-02-06T23:13:29.364Z,8.00
2019-02-06T23:15:58.273Z,8.00
2019-02-06T23:18:27.244Z,8.00
2019-02-06T23:20:56.253Z,8.00
2019-02-06T23:23:25.119Z,8.00
2019-02-06T23:25:54.756Z,8.00
2019-02-06T23:28:23.716Z,8.00
2019-02-06T23:30:52.558Z,8.00
2019-02-06T23:33:21.509Z,8.00
2019-02-06T23:35:50.516Z,8.00
2019-02-06T23:38:19.401Z,8.00
2019-02-06T23:40:48.744Z,8.00
2019-02-06T23:43:17.745Z,8.00
2019-02-06T23:45:46.873Z,8.00
2019-02-06T23:48:15.787Z,8.00
2019-02-06T23:50:44.591Z,8.00
2019-02-06T23:53:13.397Z,8.00
2019-02-06T23:55:42.790Z,8.00
2019-02-06T23:58:11.728Z,8.00
